createdAt,value
2022-10-14T00:01:14.587Z,99.85
2022-10-14T00:03:42.268Z,98.35
2022-10-14T00:06:14.977Z,111.28
2022-10-14T00:08:43.058Z,105.57
2022-10-14T00:11:16.247Z,100.03
2022-10-14T00:13:43.151Z,120.47
2022-10-14T00:16:19.939Z,116.03
2022-10-14T00:18:47.757Z,98.95
2022-10-14T00:21:15.180Z,106.57
2022-10-14T00:23:42.115Z,102.20
2022-10-14T00:26:26.543Z,94.85
2022-10-14T00:28:53.593Z,98.57
2022-10-14T00:31:20.828Z,106.22
2022-10-14T00:33:48.709Z,102.53
2022-10-14T00:36:17.767Z,91.05
2022-10-14T00:38:45.776Z,83.85
2022-10-14T00:41:15.450Z,94.05
2022-10-14T00:44:06.923Z,88.88
2022-10-14T00:46:42.813Z,90.25
2022-10-14T00:49:15.906Z,92.38
2022-10-14T00:51:46.974Z,88.63
2022-10-14T00:54:16.737Z,94.22
2022-10-14T00:56:45.812Z,91.97
2022-10-14T00:59:13.189Z,90.13
2022-10-14T01:01:40.569Z,103.72
2022-10-14T01:04:07.527Z,97.93
2022-10-14T01:07:22.803Z,99.25
2022-10-14T01:09:53.083Z,103.55
2022-10-14T01:12:34.699Z,98.25
2022-10-14T01:15:05.271Z,97.60
2022-10-14T01:17:47.303Z,98.40
2022-10-14T01:20:17.023Z,101.80
2022-10-14T01:22:52.789Z,97.68
2022-10-14T01:25:31.584Z,99.03
2022-10-14T01:28:21.524Z,98.35
2022-10-14T01:31:12.289Z,105.28
2022-10-14T01:33:43.944Z,110.43
2022-10-14T01:36:23.277Z,115.53
2022-10-14T01:38:58.723Z,115.25
2022-10-14T01:41:47.597Z,105.93
2022-10-14T01:44:17.146Z,95.07
2022-10-14T01:46:47.494Z,91.20
2022-10-14T01:49:20.973Z,78.68
2022-10-14T01:51:52.982Z,98.70
2022-10-14T01:54:25.216Z,83.72
2022-10-14T01:56:55.411Z,88.50
2022-10-14T01:59:24.073Z,87.22
2022-10-14T02:01:51.068Z,109.20
2022-10-14T02:04:23.184Z,98.22
2022-10-14T02:07:08.027Z,96.25
2022-10-14T02:10:03.813Z,82.90
2022-10-14T02:12:44.786Z,99.93
2022-10-14T02:15:32.519Z,89.25
2022-10-14T02:18:30.703Z,88.00
2022-10-14T02:21:30.213Z,80.38
2022-10-14T02:24:03.615Z,87.15
2022-10-14T02:26:31.639Z,86.00
2022-10-14T02:28:59.725Z,84.25
2022-10-14T02:31:29.278Z,88.18
2022-10-14T02:34:00.832Z,93.40
2022-10-14T02:36:29.212Z,89.75
2022-10-14T02:38:59.728Z,83.97
2022-10-14T02:41:33.765Z,90.53
2022-10-14T02:44:00.827Z,85.13
2022-10-14T02:46:29.152Z,85.97
2022-10-14T02:48:56.160Z,82.07
2022-10-14T02:51:23.111Z,87.75
2022-10-14T02:53:49.997Z,87.57
2022-10-14T02:56:17.833Z,92.88
2022-10-14T02:58:44.861Z,98.90
2022-10-14T03:01:11.747Z,93.90
2022-10-14T03:03:38.687Z,88.20
2022-10-14T03:06:05.925Z,86.57
2022-10-14T03:08:32.906Z,90.43
2022-10-14T03:10:59.875Z,84.80
2022-10-14T03:13:26.968Z,85.40
2022-10-14T03:15:53.825Z,89.43
2022-10-14T03:18:21.705Z,88.80
2022-10-14T03:20:48.713Z,84.38
2022-10-14T03:23:15.588Z,93.72
2022-10-14T03:25:45.214Z,79.97
2022-10-14T03:28:13.097Z,94.63
2022-10-14T03:30:40.324Z,87.95
2022-10-14T03:33:07.258Z,95.13
2022-10-14T03:35:34.626Z,89.68
2022-10-14T03:38:03.406Z,100.78
2022-10-14T03:40:31.065Z,98.57
2022-10-14T03:43:01.064Z,92.78
2022-10-14T03:45:28.686Z,96.57
2022-10-14T03:47:56.486Z,109.90
2022-10-14T03:50:23.739Z,104.70
2022-10-14T03:52:55.280Z,87.03
2022-10-14T03:55:23.037Z,96.45
2022-10-14T03:57:50.012Z,87.57
2022-10-14T04:00:17.080Z,102.13
2022-10-14T04:02:43.970Z,94.82
2022-10-14T04:05:11.639Z,94.93
2022-10-14T04:07:38.821Z,100.22
2022-10-14T04:10:06.442Z,108.38
2022-10-14T04:12:33.437Z,119.75
2022-10-14T04:15:00.329Z,97.85
2022-10-14T04:17:27.295Z,94.10
2022-10-14T04:19:54.253Z,96.55
2022-10-14T04:22:23.265Z,102.43
2022-10-14T04:24:50.724Z,99.20
2022-10-14T04:27:18.265Z,103.22
2022-10-14T04:29:45.149Z,101.38
2022-10-14T04:32:12.224Z,103.75
2022-10-14T04:34:39.457Z,85.43
2022-10-14T04:37:06.334Z,105.10
2022-10-14T04:39:33.299Z,88.10
2022-10-14T04:42:00.244Z,90.18
2022-10-14T04:44:27.174Z,90.35
2022-10-14T04:46:54.170Z,89.10
2022-10-14T04:49:21.180Z,83.15
2022-10-14T04:51:48.064Z,85.35
2022-10-14T04:54:15.251Z,84.47
2022-10-14T04:56:42.197Z,83.90
2022-10-14T04:59:09.146Z,84.22
2022-10-14T05:01:36.047Z,82.57
2022-10-14T05:04:03.113Z,81.68
2022-10-14T05:06:30.138Z,90.40
2022-10-14T05:08:57.099Z,84.50
2022-10-14T05:11:24.148Z,78.95
2022-10-14T05:13:51.135Z,83.28
2022-10-14T05:16:18.473Z,81.50
2022-10-14T05:18:45.539Z,83.35
2022-10-14T05:21:12.521Z,85.40
2022-10-14T05:23:39.420Z,77.15
2022-10-14T05:26:07.106Z,81.25
2022-10-14T05:28:34.144Z,83.47
2022-10-14T05:31:01.235Z,82.65
2022-10-14T05:33:28.362Z,86.15
2022-10-14T05:35:59.207Z,85.80
2022-10-14T05:38:26.559Z,79.07
2022-10-14T05:40:57.711Z,96.55
2022-10-14T05:43:30.984Z,82.13
2022-10-14T05:45:58.966Z,99.63
2022-10-14T05:48:25.991Z,88.97
2022-10-14T05:50:53.017Z,125.72
2022-10-14T05:53:20.147Z,133.35
2022-10-14T05:55:47.208Z,126.00
2022-10-14T05:58:14.123Z,96.90
2022-10-14T06:00:41.067Z,89.88
2022-10-14T06:03:11.533Z,81.05
2022-10-14T06:05:38.465Z,72.28
2022-10-14T06:08:05.783Z,80.82
2022-10-14T06:10:32.716Z,85.78
2022-10-14T06:12:59.619Z,83.72
2022-10-14T06:15:28.344Z,87.25
2022-10-14T06:17:55.247Z,82.97
2022-10-14T06:20:22.189Z,83.05
2022-10-14T06:22:49.116Z,66.90
2022-10-14T06:25:16.115Z,77.88
2022-10-14T06:27:43.069Z,75.40
2022-10-14T06:30:11.080Z,74.93
2022-10-14T06:32:38.018Z,64.10
2022-10-14T06:35:05.925Z,78.55
2022-10-14T06:37:32.827Z,80.65
2022-10-14T06:39:59.702Z,89.47
2022-10-14T06:42:26.982Z,83.40
2022-10-14T06:44:54.056Z,93.15
2022-10-14T06:47:21.031Z,85.07
2022-10-14T06:49:47.922Z,85.07
2022-10-14T06:52:14.885Z,85.43
2022-10-14T06:54:47.381Z,78.18
2022-10-14T06:57:15.786Z,90.07
2022-10-14T06:59:42.845Z,79.82
2022-10-14T07:02:10.523Z,73.35
2022-10-14T07:04:38.796Z,73.85
2022-10-14T07:07:07.192Z,68.75
2022-10-14T07:09:34.108Z,68.53
2022-10-14T07:12:01.539Z,79.78
2022-10-14T07:14:28.442Z,69.93
2022-10-14T07:16:55.350Z,77.50
2022-10-14T07:19:22.621Z,70.50
2022-10-14T07:21:49.555Z,79.00
2022-10-14T07:24:16.513Z,80.45
2022-10-14T07:26:43.604Z,71.18
2022-10-14T07:29:10.532Z,69.38
2022-10-14T07:31:37.727Z,68.88
2022-10-14T07:34:04.832Z,67.05
2022-10-14T07:36:31.843Z,73.25
2022-10-14T07:38:58.766Z,73.55
2022-10-14T07:41:25.871Z,89.18
2022-10-14T07:44:02.686Z,90.25
2022-10-14T07:46:32.480Z,83.60
2022-10-14T07:49:02.250Z,76.32
2022-10-14T07:51:29.610Z,77.10
2022-10-14T07:53:58.813Z,84.55
2022-10-14T07:56:25.938Z,83.47
2022-10-14T07:58:53.323Z,84.93
2022-10-14T08:01:20.809Z,75.18
2022-10-14T08:03:48.665Z,91.65
2022-10-14T08:06:15.973Z,72.90
2022-10-14T08:08:44.137Z,79.90
2022-10-14T08:11:17.325Z,89.82
2022-10-14T08:13:46.267Z,80.25
2022-10-14T08:16:25.249Z,83.85
2022-10-14T08:18:53.490Z,79.78
2022-10-14T08:21:21.602Z,62.70
2022-10-14T08:23:48.787Z,72.57
2022-10-14T08:26:32.092Z,62.95
2022-10-14T08:29:04.252Z,69.45
2022-10-14T08:31:31.353Z,66.88
2022-10-14T08:33:58.340Z,64.03
2022-10-14T08:36:25.622Z,74.70
2022-10-14T08:38:54.206Z,73.47
2022-10-14T08:41:43.620Z,68.00
2022-10-14T08:44:27.061Z,57.42
2022-10-14T08:47:00.418Z,71.53
2022-10-14T08:49:44.914Z,60.30
2022-10-14T08:52:21.077Z,66.00
2022-10-14T08:55:05.260Z,64.20
2022-10-14T08:57:39.271Z,73.10
2022-10-14T09:00:10.054Z,65.30
2022-10-14T09:02:48.513Z,70.55
2022-10-14T09:05:33.470Z,64.85
2022-10-14T09:08:01.662Z,58.05
2022-10-14T09:10:37.814Z,69.43
2022-10-14T09:13:32.554Z,61.80
2022-10-14T09:16:20.838Z,79.95
2022-10-14T09:18:50.908Z,59.95
2022-10-14T09:21:53.277Z,65.68
2022-10-14T09:24:27.873Z,58.80
2022-10-14T09:27:12.258Z,58.80
2022-10-14T09:29:59.241Z,61.90
2022-10-14T09:32:40.882Z,67.97
2022-10-14T09:35:28.356Z,64.72
2022-10-14T09:37:55.349Z,60.78
2022-10-14T09:40:33.842Z,63.63
2022-10-14T09:43:10.012Z,56.72
2022-10-14T09:45:58.718Z,71.57
2022-10-14T09:48:50.293Z,65.70
2022-10-14T09:51:34.847Z,61.55
2022-10-14T09:54:04.643Z,68.43
2022-10-14T09:56:37.457Z,66.88
2022-10-14T09:59:22.400Z,65.22
2022-10-14T10:01:57.582Z,64.28
2022-10-14T10:04:32.031Z,73.15
2022-10-14T10:07:01.572Z,69.68
2022-10-14T10:09:28.549Z,62.83
2022-10-14T10:11:56.024Z,74.30
2022-10-14T10:14:35.389Z,77.15
2022-10-14T10:17:08.355Z,80.28
2022-10-14T10:19:43.417Z,76.50
2022-10-14T10:22:26.775Z,66.45
2022-10-14T10:25:02.583Z,75.68
2022-10-14T10:27:36.683Z,64.13
2022-10-14T10:30:18.916Z,71.03
2022-10-14T10:33:15.676Z,69.63
2022-10-14T10:35:45.371Z,57.40
2022-10-14T10:38:39.431Z,67.00
2022-10-14T10:41:15.356Z,66.78
2022-10-14T10:43:57.537Z,77.13
2022-10-14T10:46:33.565Z,67.97
2022-10-14T10:49:40.698Z,61.53
2022-10-14T10:52:34.212Z,57.53
2022-10-14T10:55:18.715Z,56.50
2022-10-14T10:58:14.273Z,65.05
2022-10-14T11:01:24.615Z,67.40
2022-10-14T11:04:28.565Z,93.50
2022-10-14T11:07:55.348Z,59.47
2022-10-14T11:10:58.839Z,69.00
2022-10-14T11:13:30.838Z,67.80
2022-10-14T11:16:20.404Z,83.18
2022-10-14T11:18:51.187Z,67.05
2022-10-14T11:21:35.776Z,71.53
2022-10-14T11:24:51.537Z,71.07
2022-10-14T11:27:41.539Z,70.20
2022-10-14T11:30:21.819Z,63.33
2022-10-14T11:33:07.627Z,57.20
2022-10-14T11:35:51.227Z,58.92
2022-10-14T11:38:42.963Z,62.53
2022-10-14T11:41:47.189Z,67.20
2022-10-14T11:47:23.631Z,57.05
2022-10-14T11:50:17.769Z,65.38
2022-10-14T11:53:06.950Z,48.85
2022-10-14T11:55:41.074Z,51.10
2022-10-14T11:58:17.519Z,49.20
2022-10-14T12:00:49.633Z,46.95
2022-10-14T12:03:44.975Z,53.75
2022-10-14T12:06:42.459Z,56.67
2022-10-14T12:09:23.951Z,64.32
2022-10-14T12:12:00.154Z,48.70
2022-10-14T12:14:55.263Z,49.22
2022-10-14T12:17:37.079Z,52.08
2022-10-14T12:20:22.423Z,56.07
2022-10-14T12:22:51.976Z,47.08
2022-10-14T12:25:24.144Z,52.33
2022-10-14T12:27:52.888Z,49.08
2022-10-14T12:30:35.450Z,56.85
2022-10-14T12:33:05.673Z,52.25
2022-10-14T12:35:49.448Z,53.63
2022-10-14T12:38:16.577Z,49.33
2022-10-14T12:40:43.507Z,45.85
2022-10-14T12:43:29.918Z,42.22
2022-10-14T12:46:01.307Z,50.60
2022-10-14T12:48:33.071Z,51.97
2022-10-14T12:51:19.526Z,47.15
2022-10-14T12:54:08.685Z,46.22
2022-10-14T12:56:58.897Z,48.63
2022-10-14T12:59:34.473Z,47.55
2022-10-14T13:02:12.036Z,51.42
2022-10-14T13:04:51.718Z,48.63
2022-10-14T13:07:52.214Z,50.30
2022-10-14T13:10:45.928Z,46.92
2022-10-14T13:13:52.559Z,46.30
2022-10-14T13:16:25.581Z,43.60
2022-10-14T13:19:03.263Z,43.50
2022-10-14T13:21:52.054Z,47.85
2022-10-14T13:24:31.584Z,43.42
2022-10-14T13:27:22.852Z,41.38
2022-10-14T13:30:01.006Z,45.35
2022-10-14T13:32:52.611Z,46.28
2022-10-14T13:35:19.538Z,43.60
2022-10-14T13:37:53.565Z,38.58
2022-10-14T13:40:22.050Z,44.05
2022-10-14T13:42:57.282Z,36.00
2022-10-14T13:45:49.208Z,42.38
2022-10-14T13:48:39.180Z,36.45
2022-10-14T13:51:31.974Z,48.20
2022-10-14T13:54:24.277Z,36.22
2022-10-14T14:00:29.921Z,34.15
2022-10-14T14:02:38.856Z,32.75
2022-10-14T14:05:07.038Z,31.50
2022-10-14T14:08:14.133Z,31.38
2022-10-14T14:10:25.271Z,30.95
2022-10-14T14:12:52.712Z,32.10
2022-10-14T14:15:30.150Z,29.13
2022-10-14T14:17:57.140Z,28.75
2022-10-14T14:20:34.076Z,31.75
2022-10-14T14:23:01.011Z,28.55
2022-10-14T14:25:35.748Z,28.30
2022-10-14T14:28:08.003Z,30.67
2022-10-14T14:30:37.468Z,28.58
2022-10-14T14:33:13.454Z,27.92
2022-10-14T14:35:43.842Z,29.30
2022-10-14T14:38:51.702Z,22.40
2022-10-14T14:41:23.848Z,23.48
2022-10-14T14:44:24.053Z,25.60
2022-10-14T14:46:45.505Z,25.13
2022-10-14T14:49:17.138Z,29.85
2022-10-14T14:51:45.291Z,25.90
2022-10-14T14:54:18.999Z,22.63
2022-10-14T14:57:04.735Z,26.13
2022-10-14T14:59:42.651Z,25.17
2022-10-14T15:02:21.521Z,28.25
2022-10-14T15:05:01.309Z,27.30
2022-10-14T15:07:28.479Z,27.08
2022-10-14T15:09:58.545Z,27.27
2022-10-14T15:12:30.787Z,27.25
2022-10-14T15:15:46.194Z,27.38
2022-10-14T15:18:26.299Z,28.67
2022-10-14T15:21:05.083Z,28.40
2022-10-14T15:23:42.415Z,31.48
2022-10-14T15:26:27.989Z,28.73
2022-10-14T15:29:15.400Z,28.08
2022-10-14T15:31:45.986Z,32.38
2022-10-14T15:34:21.685Z,27.95
2022-10-14T15:36:52.502Z,32.53
2022-10-14T15:39:20.216Z,26.30
2022-10-14T15:41:47.535Z,38.40
2022-10-14T15:44:14.867Z,38.45
2022-10-14T15:47:03.096Z,37.20
2022-10-14T15:49:38.420Z,33.60
2022-10-14T15:52:05.684Z,38.33
2022-10-14T15:54:32.868Z,31.90
2022-10-14T15:56:59.965Z,33.92
2022-10-14T15:59:27.779Z,30.70
2022-10-14T16:01:55.527Z,30.92
2022-10-14T16:04:24.945Z,39.83
2022-10-14T16:06:56.651Z,34.20
2022-10-14T16:09:28.668Z,42.75
2022-10-14T16:11:58.501Z,41.38
2022-10-14T16:14:29.654Z,41.60
2022-10-14T16:16:56.677Z,52.75
2022-10-14T16:19:23.731Z,51.53
2022-10-14T16:21:51.012Z,51.28
2022-10-14T16:24:20.772Z,52.15
2022-10-14T16:26:51.413Z,49.85
2022-10-14T16:29:20.314Z,44.05
2022-10-14T16:31:51.236Z,65.25
2022-10-14T16:34:20.153Z,54.78
2022-10-14T16:36:48.967Z,60.67
2022-10-14T16:39:16.689Z,62.33
2022-10-14T16:41:43.970Z,68.95
2022-10-14T16:44:24.909Z,65.00
2022-10-14T16:47:15.975Z,65.68
2022-10-14T16:49:49.248Z,66.65
2022-10-14T16:52:16.646Z,75.40
2022-10-14T16:54:43.600Z,60.63
2022-10-14T16:57:11.442Z,65.80
2022-10-14T16:59:38.462Z,61.58
2022-10-14T17:02:11.453Z,54.70
2022-10-14T17:04:39.535Z,52.78
2022-10-14T17:07:09.236Z,57.17
2022-10-14T17:09:36.931Z,58.85
2022-10-14T17:12:08.115Z,56.17
2022-10-14T17:14:38.235Z,57.97
2022-10-14T17:17:05.386Z,58.97
2022-10-14T17:19:32.424Z,55.28
2022-10-14T17:22:02.081Z,62.53
2022-10-14T17:24:29.333Z,61.28
2022-10-14T17:26:56.595Z,58.53
2022-10-14T17:29:23.573Z,58.55
2022-10-14T17:31:51.549Z,62.35
2022-10-14T17:34:18.576Z,62.80
2022-10-14T17:36:45.494Z,55.38
2022-10-14T17:39:18.698Z,59.00
2022-10-14T17:41:51.286Z,61.15
2022-10-14T17:44:18.722Z,60.70
2022-10-14T17:46:45.895Z,84.38
2022-10-14T17:49:13.245Z,62.50
2022-10-14T17:51:40.182Z,64.80
2022-10-14T17:54:10.994Z,64.50
2022-10-14T17:56:38.930Z,62.00
2022-10-14T17:59:08.453Z,60.13
2022-10-14T18:01:37.851Z,64.78
2022-10-14T18:04:17.883Z,62.00
2022-10-14T18:06:45.986Z,62.40
2022-10-14T18:09:13.382Z,59.92
2022-10-14T18:14:30.651Z,58.65
2022-10-14T18:16:59.447Z,63.05
2022-10-14T18:19:27.299Z,69.47
2022-10-14T18:21:54.953Z,65.13
2022-10-14T18:24:21.979Z,62.38
2022-10-14T18:26:52.758Z,68.25
2022-10-14T18:29:19.720Z,63.38
2022-10-14T18:31:48.344Z,64.70
2022-10-14T18:34:15.303Z,70.45
2022-10-14T18:36:42.382Z,69.60
2022-10-14T18:39:11.769Z,67.47
2022-10-14T18:41:38.855Z,64.35
2022-10-14T18:44:06.661Z,61.08
2022-10-14T18:46:37.076Z,76.80
2022-10-14T18:49:06.278Z,77.93
2022-10-14T18:51:38.057Z,69.53
2022-10-14T18:54:17.150Z,70.80
2022-10-14T18:56:44.902Z,69.97
2022-10-14T18:59:18.066Z,66.65
2022-10-14T19:01:46.169Z,74.93
2022-10-14T19:04:15.253Z,70.88
2022-10-14T19:06:45.983Z,80.50
2022-10-14T19:09:14.018Z,69.50
2022-10-14T19:11:41.681Z,71.93
2022-10-14T19:14:09.938Z,76.57
2022-10-14T19:16:38.756Z,76.93
2022-10-14T19:19:14.378Z,67.38
2022-10-14T19:21:41.692Z,71.07
2022-10-14T19:24:09.721Z,66.13
2022-10-14T19:26:41.013Z,77.57
2022-10-14T19:29:11.795Z,67.07
2022-10-14T19:31:39.631Z,66.50
2022-10-14T19:34:08.252Z,71.35
2022-10-14T19:36:37.623Z,65.65
2022-10-14T19:39:05.833Z,70.43
2022-10-14T19:41:35.297Z,66.65
2022-10-14T19:44:02.238Z,73.50
2022-10-14T19:46:29.990Z,69.40
2022-10-14T19:48:59.294Z,80.72
2022-10-14T19:51:26.807Z,93.60
2022-10-14T19:53:55.670Z,97.10
2022-10-14T19:56:23.262Z,92.93
2022-10-14T19:58:53.223Z,93.13
2022-10-14T20:04:22.794Z,95.57
2022-10-14T20:06:52.146Z,85.75
2022-10-14T20:09:19.093Z,99.28
2022-10-14T20:11:46.002Z,104.82
2022-10-14T20:14:14.627Z,111.18
2022-10-14T20:16:42.044Z,107.38
2022-10-14T20:19:09.077Z,105.47
2022-10-14T20:21:38.348Z,119.18
2022-10-14T20:24:05.939Z,114.47
2022-10-14T20:26:33.319Z,123.75
2022-10-14T20:29:00.566Z,120.28
2022-10-14T20:31:28.334Z,108.25
2022-10-14T20:33:56.928Z,91.88
2022-10-14T20:36:24.266Z,91.32
2022-10-14T20:38:51.705Z,104.53
2022-10-14T20:41:21.904Z,100.70
2022-10-14T20:43:49.718Z,98.65
2022-10-14T20:46:17.313Z,99.05
2022-10-14T20:48:44.730Z,89.43
2022-10-14T20:51:14.026Z,95.82
2022-10-14T20:56:13.845Z,81.50
2022-10-14T20:58:41.001Z,78.38
2022-10-14T21:01:09.571Z,97.40
2022-10-14T21:03:37.001Z,74.47
2022-10-14T21:06:09.297Z,77.28
2022-10-14T21:08:37.443Z,73.00
2022-10-14T21:11:10.522Z,79.88
2022-10-14T21:13:43.036Z,73.13
2022-10-14T21:16:13.719Z,70.68
2022-10-14T21:18:40.680Z,74.95
2022-10-14T21:21:08.707Z,67.18
2022-10-14T21:23:37.489Z,80.05
2022-10-14T21:26:04.433Z,69.68
2022-10-14T21:28:31.500Z,64.18
2022-10-14T21:30:58.904Z,62.65
2022-10-14T21:33:25.817Z,64.80
2022-10-14T21:35:52.923Z,61.13
2022-10-14T21:38:19.944Z,62.60
2022-10-14T21:40:47.119Z,58.55
2022-10-14T21:43:14.138Z,81.15
2022-10-14T21:45:41.027Z,64.25
2022-10-14T21:48:07.988Z,60.10
2022-10-14T21:50:35.174Z,61.60
2022-10-14T21:53:02.163Z,57.90
2022-10-14T21:55:29.115Z,59.53
2022-10-14T21:57:57.536Z,61.50
2022-10-14T22:00:24.472Z,62.55
2022-10-14T22:02:54.531Z,60.58
2022-10-14T22:05:21.940Z,60.25
2022-10-14T22:07:48.916Z,62.50
2022-10-14T22:10:34.692Z,61.85
2022-10-14T22:13:01.641Z,58.75
2022-10-14T22:15:28.559Z,58.75
2022-10-14T22:17:55.495Z,63.75
2022-10-14T22:20:22.670Z,53.30
2022-10-14T22:22:49.604Z,65.32
2022-10-14T22:25:17.663Z,59.50
2022-10-14T22:27:44.528Z,59.47
2022-10-14T22:30:12.095Z,58.53
2022-10-14T22:32:42.255Z,65.47
2022-10-14T22:35:09.514Z,60.53
2022-10-14T22:37:36.405Z,65.05
2022-10-14T22:40:03.807Z,59.03
2022-10-14T22:42:30.731Z,61.20
2022-10-14T22:44:58.361Z,64.13
2022-10-14T22:47:25.808Z,62.78
2022-10-14T22:49:52.951Z,54.35
2022-10-14T22:52:20.621Z,57.15
2022-10-14T22:54:48.303Z,55.45
2022-10-14T22:57:15.174Z,55.53
2022-10-14T22:59:42.040Z,56.40
2022-10-14T23:02:09.084Z,57.92
2022-10-14T23:04:35.978Z,58.63
2022-10-14T23:07:06.898Z,57.03
2022-10-14T23:12:01.976Z,53.60
2022-10-14T23:14:30.592Z,54.85
2022-10-14T23:16:57.551Z,53.17
2022-10-14T23:19:24.488Z,57.75
2022-10-14T23:21:51.468Z,54.92
2022-10-14T23:24:18.662Z,57.20
2022-10-14T23:26:45.526Z,59.63
2022-10-14T23:29:12.499Z,60.15
2022-10-14T23:31:40.623Z,58.40
2022-10-14T23:34:11.996Z,63.70
2022-10-14T23:36:39.341Z,61.17
2022-10-14T23:39:06.726Z,59.50
2022-10-14T23:41:33.640Z,67.72
2022-10-14T23:44:00.924Z,64.75
2022-10-14T23:46:27.907Z,60.58
2022-10-14T23:49:06.665Z,52.47
2022-10-14T23:51:35.753Z,52.85
2022-10-14T23:54:02.877Z,55.10
2022-10-14T23:56:29.958Z,53.72
2022-10-14T23:58:57.018Z,54.83
